KMEI/MEI METAR and TAF weather

Enter ICAO airport designator
Station Type Date Time Source
KMEI METAR 2020/11/28 19:58 UTC NOAA

KMEI 281958Z 36005KT 10SM SCT015 14/10 A3011 RMK AO2 SLP193 T01440100


Station Type Date Time Source
KMEI Decoded METAR 2020/11/28 19:58 UTC NOAA

MERIDIAN KEY FIELD, MS, United States (KMEI) 32-20N 088-45W 89M
Nov 28, 2020 - 02:58 PM EST / 2020.11.28 1958 UTC
Wind: from the N (360 degrees) at 6 MPH (5 KT):0
Visibility: 10 mile(s):0
Sky conditions: partly cloudy
Temperature: 57.9 F (14.4 C)
Dew Point: 50.0 F (10.0 C)
Relative Humidity: 74%
Pressure (altimeter): 30.11 in. Hg (1019 hPa)
ob: KMEI 281958Z 36005KT 10SM SCT015 14/10 A3011 RMK AO2 SLP193 T01440100
cycle: 20

Station Type Date Time Source
KMEI TAF 2020/11/28 18:24 UTC NOAA

TAF KMEI 281720Z 2818/2918 03005KT P6SM OVC012
FM290900 VRB03KT P6SM VCSH OVC070
FM291300 VRB04KT 5SM BR VCSH OVC045
FM291400 09005KT 6SM BR VCSH OVC011
FM291600 11007KT 4SM BR VCSH OVC006

Example: see airport list